Time;durP1;ratioP1;P1;durP2;ratioP2;P2;SDS_P1;SDS_P2;PMS_P1;PMS_P2;Temp;Humidity;BMP_temperature;BMP_pressure;BME280_temperature;BME280_humidity;BME280_pressure;Samples;Min_cycle;Max_cycle;Signal;HPM_P1;HPM_P2
2021/11/25 00:02:23;;;;;;;32.45;15.98;;;;;;;0.15;90.24;95316.94;4981022;28;20046;-50
2021/11/25 00:04:50;;;;;;;39.45;17.15;;;;;;;-0.04;90.38;95321.34;4985271;28;20053;-51
2021/11/25 00:07:17;;;;;;;35.55;16.30;;;;;;;-0.06;90.94;95310.22;4977314;28;20125;-54
2021/11/25 00:09:44;;;;;;;31.17;15.25;;;;;;;0.12;90.29;95311.38;4982587;28;20060;-53
2021/11/25 00:12:11;;;;;;;34.47;15.57;;;;;;;0.19;90.33;95294.00;4991102;28;20038;-51
2021/11/25 00:14:38;;;;;;;29.83;15.77;;;;;;;-0.15;90.55;95301.25;4989757;28;20061;-51
2021/11/25 00:17:05;;;;;;;31.90;16.02;;;;;;;-0.12;90.11;95298.84;4991011;28;20497;-48
2021/11/25 00:19:32;;;;;;;30.08;15.73;;;;;;;-0.32;90.96;95286.53;4990703;28;20073;-52
2021/11/25 00:21:59;;;;;;;29.35;15.02;;;;;;;-0.32;91.41;95281.19;4984616;28;20050;-47
2021/11/25 00:24:26;;;;;;;29.38;14.15;;;;;;;0.12;89.92;95271.47;4976109;28;20113;-49
2021/11/25 00:26:53;;;;;;;32.72;16.00;;;;;;;0.25;88.99;95272.69;4979651;28;20408;-51
2021/11/25 00:29:20;;;;;;;30.65;15.18;;;;;;;-0.06;90.18;95267.69;4987056;28;20068;-47
2021/11/25 00:31:47;;;;;;;31.02;15.63;;;;;;;0.27;89.45;95267.88;4982902;28;20403;-47
2021/11/25 00:34:14;;;;;;;29.85;15.93;;;;;;;0.36;88.61;95271.50;4986115;28;20407;-48
2021/11/25 00:36:41;;;;;;;35.20;16.88;;;;;;;0.23;89.08;95265.00;4991009;28;20567;-49
2021/11/25 00:39:09;;;;;;;32.75;16.00;;;;;;;0.37;88.69;95267.75;4989454;28;20038;-51
2021/11/25 00:41:36;;;;;;;34.25;17.42;;;;;;;0.04;89.65;95264.91;4990463;28;20042;-48
2021/11/25 00:44:03;;;;;;;34.25;16.95;;;;;;;-0.51;92.56;95267.78;4977585;28;20456;-50
2021/11/25 00:46:30;;;;;;;34.85;17.63;;;;;;;-0.01;91.54;95268.41;4980143;28;20125;-50
2021/11/25 00:48:57;;;;;;;33.92;16.88;;;;;;;0.10;90.11;95268.28;4990584;28;20133;-47
2021/11/25 00:51:24;;;;;;;39.33;17.90;;;;;;;0.27;89.80;95265.22;4990222;28;20105;-47
2021/11/25 00:53:51;;;;;;;38.13;17.20;;;;;;;0.38;88.92;95248.03;4983457;28;20621;-50
2021/11/25 00:56:18;;;;;;;35.35;16.67;;;;;;;0.27;89.61;95265.22;4988116;28;20117;-51
2021/11/25 00:58:45;;;;;;;32.40;16.02;;;;;;;0.36;88.61;95260.88;4980973;28;20389;-52
2021/11/25 01:01:12;;;;;;;31.70;16.10;;;;;;;-0.28;91.29;95258.28;4991693;28;20050;-55
2021/11/25 01:03:40;;;;;;;29.58;15.40;;;;;;;-0.44;92.21;95256.84;4984008;28;20139;-51
2021/11/25 01:06:07;;;;;;;34.03;16.52;;;;;;;-0.21;91.65;95262.50;4992763;28;20157;-54
2021/11/25 01:08:34;;;;;;;34.10;16.13;;;;;;;-0.40;91.97;95260.53;4989199;28;20050;-54
2021/11/25 01:11:02;;;;;;;31.85;16.30;;;;;;;-0.51;92.54;95248.41;4995613;28;20074;-54
2021/11/25 01:13:29;;;;;;;38.45;16.90;;;;;;;-0.60;92.89;95256.16;4993364;28;20042;-54
2021/11/25 01:15:56;;;;;;;33.10;16.35;;;;;;;-0.55;93.25;95242.84;4996331;28;20049;-53
2021/11/25 01:18:24;;;;;;;32.65;16.17;;;;;;;-0.61;92.74;95245.84;4992152;28;20129;-54
2021/11/25 01:20:53;;;;;;;37.45;17.05;;;;;;;-0.32;91.98;95235.22;4984460;28;20118;-53
2021/11/25 01:23:23;;;;;;;30.63;15.65;;;;;;;-0.32;91.47;95233.34;4983982;28;20500;-51
2021/11/25 01:25:52;;;;;;;34.47;15.95;;;;;;;-0.22;91.43;95232.47;4990662;28;20038;-47
2021/11/25 01:28:20;;;;;;;29.25;15.70;;;;;;;-0.07;91.05;95234.16;4993942;28;20070;-50
2021/11/25 01:30:52;;;;;;;32.25;16.10;;;;;;;-0.22;91.19;95237.78;4992682;28;20121;-51
2021/11/25 01:33:19;;;;;;;34.58;16.25;;;;;;;-0.03;90.72;95233.34;4992336;28;20041;-51
2021/11/25 01:35:47;;;;;;;29.10;15.50;;;;;;;-0.30;91.39;95223.22;4993407;28;20061;-48
2021/11/25 01:38:15;;;;;;;31.13;15.90;;;;;;;-0.75;93.46;95229.72;4985816;28;20046;-53
2021/11/25 01:40:43;;;;;;;33.10;16.42;;;;;;;-0.56;92.45;95235.94;4991556;28;20469;-52
2021/11/25 01:43:11;;;;;;;37.90;17.38;;;;;;;-0.57;93.04;95229.03;4977637;28;20563;-53
2021/11/25 01:45:39;;;;;;;35.92;17.33;;;;;;;-0.42;92.47;95227.31;4993753;28;20046;-54
2021/11/25 01:48:07;;;;;;;32.75;16.55;;;;;;;-0.16;91.03;95219.91;4986718;28;20142;-54
2021/11/25 01:50:35;;;;;;;35.38;16.48;;;;;;;-0.14;90.39;95212.44;4991982;28;20046;-53
2021/11/25 01:53:03;;;;;;;35.80;16.58;;;;;;;-0.45;91.85;95207.44;4993889;28;20488;-56
2021/11/25 01:55:31;;;;;;;35.80;16.45;;;;;;;-0.55;93.01;95218.16;4990125;28;20493;-52
2021/11/25 01:57:58;;;;;;;34.78;16.48;;;;;;;-0.31;91.61;95213.66;4993703;28;20038;-51
2021/11/25 02:00:33;;;;;;;32.78;16.02;;;;;;;-0.21;91.16;95209.31;4979421;28;20042;-52
2021/11/25 02:03:02;;;;;;;33.92;16.38;;;;;;;-0.02;90.88;95207.53;4985196;28;20038;-51
2021/11/25 02:05:30;;;;;;;34.72;17.60;;;;;;;0.10;90.18;95199.97;4975588;28;20097;-47
2021/11/25 02:07:57;;;;;;;34.05;16.58;;;;;;;0.00;90.10;95192.09;4988318;28;20497;-47
2021/11/25 02:10:25;;;;;;;36.75;16.98;;;;;;;-0.44;91.64;95174.47;4992576;28;20057;-54
2021/11/25 02:12:52;;;;;;;34.40;16.00;;;;;;;-0.88;93.96;95167.41;4992242;28;20162;-50
2021/11/25 02:15:20;;;;;;;36.03;17.00;;;;;;;-0.99;95.03;95169.34;4986039;28;20050;-50
2021/11/25 02:17:47;;;;;;;39.53;17.02;;;;;;;-0.83;94.67;95167.38;4983106;28;20078;-52
2021/11/25 02:20:14;;;;;;;32.33;16.25;;;;;;;-0.34;92.43;95157.63;4994637;28;20057;-51
2021/11/25 02:22:43;;;;;;;34.83;17.13;;;;;;;-0.36;92.44;95162.41;4983400;28;20039;-51
2021/11/25 02:25:12;;;;;;;36.50;17.33;;;;;;;-0.36;92.14;95163.19;4980996;28;20043;-55
2021/11/25 02:27:43;;;;;;;34.45;16.83;;;;;;;-0.13;91.47;95152.88;4986703;28;20130;-55
2021/11/25 02:30:11;;;;;;;35.85;16.90;;;;;;;-0.08;91.33;95158.94;4990796;28;20077;-53
2021/11/25 02:32:41;;;;;;;35.40;17.98;;;;;;;-0.20;91.44;95169.16;4994022;28;20060;-51
2021/11/25 02:35:12;;;;;;;36.97;17.73;;;;;;;0.03;91.13;95161.47;4982594;28;20050;-50
2021/11/25 02:37:39;;;;;;;37.60;17.63;;;;;;;-0.15;91.50;95160.34;4992948;28;20511;-51
2021/11/25 02:40:15;;;;;;;36.75;18.08;;;;;;;0.16;90.61;95155.44;4992221;28;20050;-52
2021/11/25 02:42:43;;;;;;;34.35;17.35;;;;;;;0.28;89.46;95147.84;4980418;28;20069;-54
2021/11/25 02:45:10;;;;;;;36.40;16.63;;;;;;;0.15;89.71;95133.38;4985547;28;20041;-55
2021/11/25 02:47:37;;;;;;;38.35;18.30;;;;;;;0.34;89.38;95140.59;4991277;28;20076;-55
2021/11/25 02:50:04;;;;;;;34.17;16.60;;;;;;;0.42;88.79;95130.13;4987465;28;20077;-56
2021/11/25 02:52:31;;;;;;;36.15;17.35;;;;;;;0.02;90.47;95120.78;5002203;28;20469;-53
2021/11/25 02:54:58;;;;;;;33.22;16.63;;;;;;;-0.29;92.37;95118.50;4986062;28;20505;-54
2021/11/25 02:57:25;;;;;;;36.65;18.25;;;;;;;-0.39;92.85;95118.63;4984605;28;20050;-51
2021/11/25 02:59:52;;;;;;;34.10;17.02;;;;;;;-0.29;92.99;95123.81;4989000;28;20042;-51
2021/11/25 03:02:19;;;;;;;34.03;16.90;;;;;;;-0.37;92.32;95131.59;4982394;28;20519;-53
2021/11/25 03:04:46;;;;;;;34.03;16.48;;;;;;;-0.67;95.96;95138.03;4992887;28;20042;-52
2021/11/25 03:07:13;;;;;;;32.75;16.90;;;;;;;-0.82;96.06;95134.41;4993296;28;20046;-52
2021/11/25 03:09:40;;;;;;;34.80;17.58;;;;;;;-1.11;96.52;95125.66;4992206;28;20070;-48
2021/11/25 03:12:08;;;;;;;33.63;17.00;;;;;;;-0.92;98.02;95126.53;4993550;28;20133;-54
2021/11/25 03:14:36;;;;;;;32.60;16.00;;;;;;;-0.32;95.00;95116.41;4986513;28;20045;-53
2021/11/25 03:17:04;;;;;;;35.55;17.35;;;;;;;-0.38;93.56;95120.19;4988879;28;20685;-52
2021/11/25 03:19:31;;;;;;;37.55;17.75;;;;;;;-0.26;92.95;95125.91;4987865;28;20101;-54
2021/11/25 03:21:57;;;;;;;38.60;18.00;;;;;;;-0.15;92.91;95129.22;4992063;28;20047;-56
2021/11/25 03:24:24;;;;;;;35.13;17.13;;;;;;;-0.12;91.95;95134.00;4989279;28;20043;-53
2021/11/25 03:26:51;;;;;;;39.92;17.90;;;;;;;-0.05;91.62;95128.31;4989843;28;20046;-53
2021/11/25 03:29:19;;;;;;;37.42;17.23;;;;;;;-0.74;93.77;95128.50;4990712;28;20046;-52
2021/11/25 03:31:46;;;;;;;34.17;16.88;;;;;;;-1.33;97.97;95124.22;4993213;28;20046;-51
2021/11/25 03:34:13;;;;;;;37.25;17.98;;;;;;;-0.67;97.39;95130.06;4989864;28;20698;-52
2021/11/25 03:36:40;;;;;;;33.47;16.23;;;;;;;-0.54;94.12;95124.09;4991007;28;20052;-52
2021/11/25 03:39:07;;;;;;;37.25;16.50;;;;;;;-0.32;94.94;95121.72;4978806;28;20047;-50
2021/11/25 03:41:35;;;;;;;32.28;16.38;;;;;;;-0.31;92.95;95120.63;4986375;28;20172;-51
2021/11/25 03:44:02;;;;;;;31.40;16.17;;;;;;;-0.42;92.91;95121.84;4989895;28;20481;-51
2021/11/25 03:46:33;;;;;;;28.83;14.88;;;;;;;-0.44;92.86;95116.00;4978587;28;20134;-52
2021/11/25 03:49:00;;;;;;;29.85;15.45;;;;;;;-0.72;94.31;95121.03;4991226;28;20148;-49
2021/11/25 03:51:27;;;;;;;32.95;15.30;;;;;;;-0.74;94.32;95112.59;4991924;28;20505;-53
2021/11/25 03:53:54;;;;;;;36.08;15.77;;;;;;;-0.64;94.12;95116.22;4988674;28;20046;-52
2021/11/25 03:56:21;;;;;;;35.72;15.98;;;;;;;-0.83;95.06;95114.25;4974077;28;20050;-54
2021/11/25 03:58:48;;;;;;;29.15;13.95;;;;;;;-0.59;94.13;95103.66;4984976;28;20078;-53
2021/11/25 04:01:16;;;;;;;31.95;15.43;;;;;;;-0.21;92.12;95100.34;4991042;28;20047;-54
2021/11/25 04:03:44;;;;;;;32.92;16.90;;;;;;;-0.34;92.14;95104.47;4990707;28;20053;-53
2021/11/25 04:06:11;;;;;;;31.02;15.30;;;;;;;-0.43;93.28;95104.28;4979239;28;20055;-51
2021/11/25 04:08:38;;;;;;;29.58;15.38;;;;;;;-0.17;92.05;95104.78;4981513;28;20042;-53
2021/11/25 04:11:06;;;;;;;33.13;16.08;;;;;;;-0.03;90.84;95095.06;4975779;28;20596;-50
2021/11/25 04:13:34;;;;;;;32.17;15.13;;;;;;;-0.26;92.42;95098.50;4979411;28;20081;-56
2021/11/25 04:16:02;;;;;;;30.80;15.77;;;;;;;-0.23;92.19;95089.97;4982801;28;20603;-55
2021/11/25 04:18:29;;;;;;;33.50;16.88;;;;;;;-0.22;91.96;95086.25;4990841;28;20046;-54
2021/11/25 04:20:56;;;;;;;35.10;17.48;;;;;;;0.10;90.71;95092.75;4985979;28;20464;-55
2021/11/25 04:23:23;;;;;;;30.98;15.68;;;;;;;0.09;90.37;95088.50;4987003;28;20141;-54
2021/11/25 04:25:50;;;;;;;32.03;15.60;;;;;;;-0.14;91.46;95082.16;4979827;28;20049;-52
2021/11/25 04:28:17;;;;;;;33.25;16.17;;;;;;;-0.02;91.98;95083.34;4990900;28;20034;-51
2021/11/25 04:35:57;;;;;;;31.63;15.40;;;;;;;-0.29;91.24;95080.50;4988346;28;20042;-56
2021/11/25 04:38:24;;;;;;;29.30;14.30;;;;;;;-0.25;92.21;95079.63;4985416;28;20050;-53
2021/11/25 04:40:55;;;;;;;31.08;14.80;;;;;;;0.03;90.92;95071.81;4991193;28;20055;-54
2021/11/25 04:43:23;;;;;;;29.92;14.98;;;;;;;-0.06;90.50;95071.69;4985271;28;20505;-56
2021/11/25 04:45:52;;;;;;;29.98;16.20;;;;;;;-0.37;92.56;95068.59;4987395;28;20161;-54
2021/11/25 04:48:21;;;;;;;29.88;14.30;;;;;;;-0.13;91.48;95063.28;4982546;28;20039;-55
2021/11/25 04:50:48;;;;;;;31.80;15.82;;;;;;;0.07;91.17;95061.44;4973043;28;20043;-53
2021/11/25 04:53:16;;;;;;;31.80;15.57;;;;;;;-0.22;91.46;95054.34;4984798;28;20072;-57
2021/11/25 04:55:43;;;;;;;31.90;15.60;;;;;;;-0.21;91.73;95050.59;4987965;28;20042;-50
2021/11/25 04:58:11;;;;;;;33.95;15.27;;;;;;;-0.28;92.53;95050.97;4977905;28;20177;-54
2021/11/25 05:00:40;;;;;;;32.17;15.82;;;;;;;-0.07;91.67;95042.72;4992393;28;20098;-54
2021/11/25 05:03:07;;;;;;;32.10;15.23;;;;;;;0.14;91.63;95040.59;4989690;28;20039;-53
2021/11/25 05:05:34;;;;;;;23.50;12.65;;;;;;;-0.01;90.20;95042.34;4991217;28;20046;-53
2021/11/25 05:08:01;;;;;;;27.88;13.85;;;;;;;0.18;89.96;95042.38;4980357;28;20054;-53
2021/11/25 05:10:29;;;;;;;27.33;13.25;;;;;;;0.01;89.88;95047.41;4984043;28;20433;-54
2021/11/25 05:12:56;;;;;;;28.45;14.32;;;;;;;0.11;90.41;95049.94;4978710;28;20035;-49
2021/11/25 05:15:23;;;;;;;32.30;14.48;;;;;;;0.33;89.14;95054.69;4982352;28;20133;-49
2021/11/25 05:17:51;;;;;;;29.85;14.50;;;;;;;0.46;88.53;95045.97;4983046;28;20126;-49
2021/11/25 05:20:19;;;;;;;25.70;13.07;;;;;;;-0.10;91.51;95046.75;4982883;28;20043;-51
2021/11/25 05:22:46;;;;;;;31.08;14.20;;;;;;;0.32;89.68;95046.97;4981508;28;20042;-52
2021/11/25 05:25:15;;;;;;;28.35;13.68;;;;;;;0.07;89.97;95050.78;4985201;28;20544;-51
2021/11/25 05:27:44;;;;;;;32.95;15.32;;;;;;;0.20;90.66;95040.22;4987075;28;20054;-55
2021/11/25 05:30:13;;;;;;;29.25;15.60;;;;;;;-0.08;91.55;95039.28;4982425;28;20050;-53
2021/11/25 05:32:40;;;;;;;27.83;14.65;;;;;;;0.41;89.29;95030.06;4987363;28;20046;-53
2021/11/25 05:35:10;;;;;;;28.95;15.13;;;;;;;0.40;88.60;95031.16;4992060;28;20046;-56
2021/11/25 05:37:39;;;;;;;30.17;14.88;;;;;;;0.42;88.75;95036.16;4984475;28;20125;-56
2021/11/25 05:40:09;;;;;;;29.40;14.52;;;;;;;-0.05;90.89;95049.34;4989589;28;20613;-53
2021/11/25 05:42:36;;;;;;;32.47;15.05;;;;;;;0.15;90.37;95050.13;4979043;28;20046;-50
2021/11/25 05:45:07;;;;;;;31.85;15.07;;;;;;;-0.16;91.42;95055.06;4973783;28;20050;-57
2021/11/25 05:47:36;;;;;;;29.17;13.48;;;;;;;-0.42;92.50;95047.41;4989115;28;20145;-55
2021/11/25 05:50:07;;;;;;;28.05;14.00;;;;;;;-0.62;93.72;95053.72;4994520;28;20050;-55
2021/11/25 05:52:34;;;;;;;30.75;13.95;;;;;;;-0.12;92.21;95045.47;4985324;28;20134;-57
2021/11/25 05:55:01;;;;;;;28.92;14.00;;;;;;;0.08;90.59;95039.06;4988210;28;20433;-57
2021/11/25 05:57:28;;;;;;;28.85;14.40;;;;;;;-0.01;91.62;95038.91;4991175;28;20044;-57
2021/11/25 05:59:55;;;;;;;29.23;14.23;;;;;;;0.06;91.42;95030.56;4984557;28;20050;-56
2021/11/25 06:02:22;;;;;;;30.48;14.95;;;;;;;-0.08;90.70;95027.84;4978572;28;20049;-54
2021/11/25 06:04:50;;;;;;;29.08;13.90;;;;;;;0.19;89.98;95033.31;4984634;28;20119;-47
2021/11/25 06:07:17;;;;;;;24.67;13.50;;;;;;;0.39;88.84;95029.56;4980085;28;20057;-54
2021/11/25 06:09:44;;;;;;;30.23;14.63;;;;;;;0.39;88.37;95028.75;4981699;28;20137;-57
2021/11/25 06:12:11;;;;;;;30.38;14.80;;;;;;;0.11;89.67;95030.53;4988221;28;20043;-56
2021/11/25 06:14:38;;;;;;;32.53;15.15;;;;;;;0.39;89.30;95028.75;4991592;28;20034;-51
2021/11/25 06:17:05;;;;;;;31.00;14.45;;;;;;;0.23;89.74;95018.38;4992785;28;20125;-52
2021/11/25 06:19:32;;;;;;;29.35;13.52;;;;;;;-0.60;93.39;95030.34;4986110;28;20053;-50
2021/11/25 06:21:59;;;;;;;32.97;14.90;;;;;;;-0.84;95.84;95025.03;4975371;28;20150;-54
2021/11/25 06:24:26;;;;;;;31.92;15.15;;;;;;;-0.73;95.16;95023.06;4988456;28;20044;-52
2021/11/25 06:26:54;;;;;;;28.13;13.50;;;;;;;-0.12;92.47;95022.31;4993600;28;20319;-55
2021/11/25 06:29:21;;;;;;;29.95;14.65;;;;;;;0.05;90.88;95021.03;4987952;28;20050;-53
2021/11/25 06:31:48;;;;;;;26.23;13.65;;;;;;;-0.54;92.86;95017.81;4989529;28;20540;-49
2021/11/25 06:34:16;;;;;;;26.55;13.57;;;;;;;-0.61;93.91;95025.31;4993536;28;20110;-49
2021/11/25 06:36:43;;;;;;;27.35;13.98;;;;;;;-0.28;92.15;95019.06;4990394;28;20050;-49
2021/11/25 06:39:09;;;;;;;30.38;13.45;;;;;;;0.02;91.74;95022.38;4989622;28;20046;-51
2021/11/25 06:41:37;;;;;;;28.17;13.70;;;;;;;0.26;89.89;95024.16;4980636;28;20057;-55
2021/11/25 06:44:04;;;;;;;25.45;13.80;;;;;;;-0.06;90.46;95034.47;4990679;28;20046;-55
2021/11/25 06:46:31;;;;;;;26.75;13.35;;;;;;;-0.08;90.51;95038.47;4992226;28;20065;-52
2021/11/25 06:49:03;;;;;;;25.70;13.40;;;;;;;0.04;90.30;95041.53;4992127;28;20112;-54
2021/11/25 06:51:31;;;;;;;24.80;13.40;;;;;;;0.16;89.61;95033.91;4992335;28;20519;-53
2021/11/25 06:53:58;;;;;;;27.70;13.05;;;;;;;-0.45;92.77;95037.34;4984865;28;20045;-56
2021/11/25 06:56:25;;;;;;;23.67;12.38;;;;;;;-0.08;91.93;95043.81;4991475;28;20133;-56
2021/11/25 06:58:53;;;;;;;25.77;12.45;;;;;;;0.15;90.51;95042.94;4977144;28;20557;-55
2021/11/25 07:01:20;;;;;;;23.98;12.48;;;;;;;-0.14;91.31;95050.25;4974750;28;20046;-56
2021/11/25 07:03:47;;;;;;;23.90;12.38;;;;;;;-0.01;90.42;95045.03;4999595;28;20046;-57
2021/11/25 07:06:14;;;;;;;27.15;13.50;;;;;;;-0.05;91.06;95040.56;4990135;28;20042;-56
2021/11/25 07:08:41;;;;;;;26.05;13.00;;;;;;;-0.59;94.14;95039.09;4994342;28;20060;-52
2021/11/25 07:11:08;;;;;;;23.50;12.23;;;;;;;0.13;91.11;95044.31;5000225;28;20046;-53
2021/11/25 07:13:35;;;;;;;23.45;12.52;;;;;;;-0.35;92.88;95039.09;4992027;28;20109;-53
2021/11/25 07:16:03;;;;;;;26.17;12.45;;;;;;;-0.02;91.52;95048.75;4973854;28;20039;-51
2021/11/25 07:18:30;;;;;;;25.58;13.02;;;;;;;0.35;89.99;95044.50;4974748;28;20047;-49
2021/11/25 07:20:58;;;;;;;26.73;12.80;;;;;;;0.26;89.53;95048.94;4989599;28;20046;-54
2021/11/25 07:23:25;;;;;;;26.85;13.13;;;;;;;-0.71;93.89;95040.31;4992613;28;20046;-52
2021/11/25 07:25:52;;;;;;;24.27;12.20;;;;;;;-0.69;95.05;95044.53;4982001;28;20125;-55
2021/11/25 07:28:19;;;;;;;26.52;13.40;;;;;;;-0.04;91.35;95042.16;4993349;28;20046;-54
2021/11/25 07:30:46;;;;;;;28.65;13.63;;;;;;;-0.72;94.70;95038.69;4988062;28;20049;-57
2021/11/25 07:33:13;;;;;;;24.17;12.95;;;;;;;-0.47;94.47;95040.28;4991419;28;20046;-49
2021/11/25 07:35:46;;;;;;;25.48;13.50;;;;;;;0.04;91.19;95038.84;4977655;28;20101;-50
2021/11/25 07:38:13;;;;;;;29.17;14.73;;;;;;;-0.07;91.87;95016.13;4986678;28;20046;-56
2021/11/25 07:40:42;;;;;;;24.95;12.80;;;;;;;-0.08;91.61;95006.56;4974833;28;20050;-55
2021/11/25 07:43:09;;;;;;;26.05;12.82;;;;;;;0.28;89.50;95009.50;4990236;28;20043;-50
2021/11/25 07:45:36;;;;;;;26.00;13.20;;;;;;;-0.56;92.67;95004.78;5000816;28;20039;-52
2021/11/25 07:48:03;;;;;;;28.90;13.38;;;;;;;-1.15;95.89;94999.88;4991307;28;20052;-57
2021/11/25 07:50:30;;;;;;;23.65;12.13;;;;;;;-1.15;97.50;95002.53;4985166;28;20042;-53
2021/11/25 07:52:58;;;;;;;25.45;13.18;;;;;;;-0.79;95.89;95002.94;4992785;28;20054;-49
2021/11/25 07:55:26;;;;;;;23.60;12.52;;;;;;;-1.14;97.48;95001.44;4990476;28;20050;-53
2021/11/25 07:57:53;;;;;;;27.13;12.82;;;;;;;-1.15;97.00;95000.66;4981822;28;20504;-52
2021/11/25 08:00:22;;;;;;;26.95;12.63;;;;;;;-1.34;98.01;95002.44;5002994;28;20054;-53
2021/11/25 08:02:50;;;;;;;25.58;12.90;;;;;;;-1.01;98.38;94998.94;4997369;28;20050;-55
2021/11/25 08:05:18;;;;;;;28.10;14.77;;;;;;;-1.24;98.73;94986.41;4993722;28;20038;-48
2021/11/25 08:07:45;;;;;;;27.15;14.20;;;;;;;-1.01;98.17;94998.94;4986836;28;20145;-52
2021/11/25 08:10:13;;;;;;;28.33;13.88;;;;;;;-0.92;97.98;94990.34;4989068;28;20069;-48
2021/11/25 08:12:41;;;;;;;31.65;13.75;;;;;;;-0.42;94.86;94986.31;5000072;28;20132;-47
2021/11/25 08:15:10;;;;;;;25.40;13.38;;;;;;;0.03;93.04;94999.25;4994961;28;20038;-48
2021/11/25 08:17:37;;;;;;;28.15;13.55;;;;;;;0.28;90.95;95006.06;4990916;28;20109;-50
2021/11/25 08:20:05;;;;;;;25.95;13.77;;;;;;;0.60;89.19;95003.41;4987750;28;20039;-49
2021/11/25 08:22:32;;;;;;;27.50;13.73;;;;;;;0.44;89.57;95012.72;4993844;28;20052;-48
2021/11/25 08:25:01;;;;;;;27.73;14.57;;;;;;;0.78;88.45;95006.31;4993908;28;20137;-48
2021/11/25 08:27:28;;;;;;;28.65;15.02;;;;;;;0.39;88.81;94994.16;4998948;28;20547;-49
2021/11/25 08:29:55;;;;;;;22.80;13.10;;;;;;;-0.27;92.90;94999.38;4986567;28;20039;-49
2021/11/25 08:32:22;;;;;;;25.90;14.25;;;;;;;0.26;91.98;94992.25;4991324;28;20046;-50
2021/11/25 08:34:49;;;;;;;24.67;12.57;;;;;;;0.36;89.75;95000.09;4981193;28;20471;-51
2021/11/25 08:37:17;;;;;;;26.83;13.93;;;;;;;0.06;90.89;95009.31;4992488;28;20047;-52
2021/11/25 08:39:47;;;;;;;28.25;13.55;;;;;;;0.20;90.92;95013.63;4981778;28;20031;-53
2021/11/25 08:42:14;;;;;;;30.20;14.50;;;;;;;0.01;91.46;95020.81;4982729;28;20130;-54
2021/11/25 08:44:42;;;;;;;27.35;14.35;;;;;;;-0.45;93.21;95018.75;4994686;28;20184;-50
2021/11/25 08:47:09;;;;;;;27.83;14.13;;;;;;;-0.38;94.11;95013.88;4991070;28;20042;-54
2021/11/25 08:49:36;;;;;;;26.88;13.55;;;;;;;-0.63;95.10;95011.53;4989242;28;20038;-54
2021/11/25 08:52:05;;;;;;;27.33;13.63;;;;;;;-0.06;92.99;95015.06;4993629;28;20050;-49
2021/11/25 08:54:32;;;;;;;26.83;13.73;;;;;;;-0.10;92.44;95019.34;4985529;28;20046;-55
2021/11/25 08:56:59;;;;;;;26.85;14.40;;;;;;;0.62;90.45;95019.91;4986012;28;20050;-49
2021/11/25 08:59:26;;;;;;;25.25;13.95;;;;;;;0.68;89.04;95024.06;4986719;28;20046;-49
2021/11/25 09:01:53;;;;;;;26.05;13.27;;;;;;;0.70;89.35;95026.41;4990540;28;20042;-51
2021/11/25 09:04:20;;;;;;;23.83;13.45;;;;;;;0.49;90.21;95025.16;4989452;28;20154;-50
2021/11/25 09:06:47;;;;;;;24.73;12.55;;;;;;;-0.02;89.65;95024.03;4980373;28;20061;-50
2021/11/25 09:09:14;;;;;;;27.88;13.68;;;;;;;-0.62;92.66;95018.41;4987599;28;20053;-49
2021/11/25 09:11:42;;;;;;;25.83;13.55;;;;;;;-0.90;94.95;95012.09;4986268;28;20042;-51
2021/11/25 09:14:10;;;;;;;26.10;14.25;;;;;;;-0.60;94.13;95018.94;4987309;28;20050;-50
2021/11/25 09:16:37;;;;;;;24.58;11.50;;;;;;;-1.19;96.31;95018.22;4991107;28;20044;-49
2021/11/25 09:19:04;;;;;;;28.08;13.88;;;;;;;-1.10;96.60;95023.72;4984789;28;20114;-50
2021/11/25 09:21:31;;;;;;;27.00;14.15;;;;;;;-0.53;95.02;95030.00;5002781;28;20046;-52
2021/11/25 09:24:04;;;;;;;25.33;13.35;;;;;;;-0.33;93.32;95026.31;4985122;28;20125;-51
2021/11/25 09:26:35;;;;;;;25.40;13.83;;;;;;;-0.24;92.76;95025.38;4994531;28;20125;-54
2021/11/25 09:29:06;;;;;;;27.40;14.23;;;;;;;0.17;90.81;95019.53;4990969;28;20105;-51
2021/11/25 09:31:34;;;;;;;29.08;12.93;;;;;;;0.35;89.61;95030.44;4989308;28;20042;-54
2021/11/25 09:34:02;;;;;;;28.50;13.60;;;;;;;0.22;90.24;95029.28;4992776;28;20121;-47
2021/11/25 09:36:31;;;;;;;27.83;13.55;;;;;;;-0.04;90.79;95028.84;4989311;28;20035;-49
2021/11/25 09:38:59;;;;;;;26.02;13.25;;;;;;;-0.68;93.72;95030.16;4991285;28;20046;-49
2021/11/25 09:41:27;;;;;;;29.08;15.05;;;;;;;-0.37;94.12;95035.94;4971037;28;20074;-54
2021/11/25 09:43:54;;;;;;;29.75;13.80;;;;;;;-0.55;93.61;95035.63;4994490;28;20050;-52
2021/11/25 09:46:23;;;;;;;27.75;13.70;;;;;;;-0.78;95.00;95025.75;4993835;28;20165;-50
2021/11/25 09:48:54;;;;;;;27.65;14.60;;;;;;;-0.53;94.13;95030.78;4993621;28;20045;-55
2021/11/25 09:51:23;;;;;;;27.42;13.50;;;;;;;-0.71;94.87;95020.91;4986674;28;20143;-49
2021/11/25 09:53:53;;;;;;;27.63;15.80;;;;;;;-0.37;94.34;95019.97;4992660;28;20042;-51
2021/11/25 09:56:20;;;;;;;26.35;14.07;;;;;;;0.11;91.75;95020.66;4993377;28;20508;-48
2021/11/25 09:58:50;;;;;;;27.75;13.73;;;;;;;-0.64;94.91;95001.97;4993668;28;20053;-51
2021/11/25 10:01:21;;;;;;;26.40;12.82;;;;;;;-0.98;94.88;95011.63;4993277;28;20038;-54
2021/11/25 10:03:49;;;;;;;29.58;12.88;;;;;;;-0.68;95.39;95008.91;4992247;28;20046;-49
2021/11/25 10:06:18;;;;;;;28.92;14.25;;;;;;;-0.66;95.60;95004.91;4977500;28;20504;-50
2021/11/25 10:08:49;;;;;;;27.85;13.38;;;;;;;-0.18;92.61;95010.16;4990885;28;21024;-53
2021/11/25 10:11:19;;;;;;;26.15;14.10;;;;;;;-0.11;91.83;95015.13;4989741;28;20133;-53
2021/11/25 10:13:46;;;;;;;29.15;14.35;;;;;;;-0.03;91.21;95006.53;4991013;28;20050;-51
2021/11/25 10:16:20;;;;;;;29.55;14.48;;;;;;;0.30;89.76;95004.69;4994466;28;20492;-47
2021/11/25 10:18:47;;;;;;;29.95;13.90;;;;;;;-0.42;92.96;94994.28;4992908;28;20093;-54
2021/11/25 10:21:17;;;;;;;25.75;13.85;;;;;;;-0.77;94.84;94985.66;5005382;28;20046;-52
2021/11/25 10:23:46;;;;;;;26.02;13.80;;;;;;;-0.39;93.93;94991.03;5009892;28;20050;-48
2021/11/25 10:26:17;;;;;;;25.80;13.68;;;;;;;0.09;91.20;95001.53;4993144;28;20130;-52
2021/11/25 10:28:50;;;;;;;26.33;13.80;;;;;;;0.06;91.56;94996.78;4982201;28;20070;-46
2021/11/25 10:31:25;;;;;;;30.60;14.68;;;;;;;0.62;89.55;94985.28;4994287;28;20038;-55
2021/11/25 10:33:59;;;;;;;25.85;12.95;;;;;;;0.41;89.17;94976.84;4983083;28;20046;-50
2021/11/25 10:39:13;;;;;;;29.95;14.82;;;;;;;-0.52;94.33;94975.78;5025571;22;20049;-48
2021/11/25 10:41:46;;;;;;;29.73;14.38;;;;;;;-0.39;92.91;94974.28;4992176;28;20133;-51
2021/11/25 10:44:19;;;;;;;28.48;14.00;;;;;;;0.01;91.31;94967.63;4992279;28;20077;-50
2021/11/25 10:47:07;;;;;;;29.13;14.48;;;;;;;-0.40;92.78;94973.50;4993935;28;20129;-46
2021/11/25 10:49:50;;;;;;;27.42;13.43;;;;;;;-0.58;95.45;94961.00;4993594;28;20467;-46
2021/11/25 10:52:28;;;;;;;25.27;13.57;;;;;;;-0.97;95.97;94962.78;4992454;28;20046;-52
2021/11/25 10:55:05;;;;;;;27.30;13.35;;;;;;;-0.80;95.66;94953.56;4993636;28;20106;-52
2021/11/25 10:57:45;;;;;;;27.95;14.38;;;;;;;-0.48;95.12;94951.03;4993509;28;20089;-52
2021/11/25 11:00:42;;;;;;;27.40;12.55;;;;;;;-0.97;95.81;94951.38;4993618;28;20043;-52
2021/11/25 11:03:11;;;;;;;27.23;14.15;;;;;;;-0.93;96.72;94941.75;4991098;28;20050;-49
2021/11/25 11:05:47;;;;;;;29.55;13.77;;;;;;;-1.08;96.77;94933.97;4993444;28;20097;-49
2021/11/25 11:08:15;;;;;;;24.85;13.65;;;;;;;-1.09;96.33;94930.53;4993374;28;20485;-50
2021/11/25 11:11:02;;;;;;;27.30;13.10;;;;;;;-0.93;96.98;94935.66;4993341;28;20088;-52
2021/11/25 11:18:57;;;;;;;30.40;14.50;;;;;;;-0.50;95.07;94953.16;4993114;28;20161;-52
2021/11/25 11:21:52;;;;;;;29.80;14.35;;;;;;;-0.04;93.11;94941.09;4992813;28;20050;-49
2021/11/25 11:24:24;;;;;;;29.52;14.63;;;;;;;0.03;92.13;94959.34;4991129;28;20058;-53
2021/11/25 11:27:02;;;;;;;29.40;15.80;;;;;;;-0.47;93.74;94947.28;4993019;28;20046;-52
2021/11/25 11:29:31;;;;;;;31.45;15.15;;;;;;;-0.42;95.21;94941.13;4993029;28;20050;-49
2021/11/25 11:32:03;;;;;;;26.92;14.50;;;;;;;-0.66;94.88;94937.72;4992827;28;20393;-48
2021/11/25 11:34:32;;;;;;;31.60;16.03;;;;;;;-0.73;97.22;94949.47;4992209;28;20049;-47
2021/11/25 11:37:00;;;;;;;33.65;15.00;;;;;;;-0.26;94.50;94941.69;4992643;28;20132;-51
2021/11/25 11:39:29;;;;;;;34.13;16.83;;;;;;;-0.18;93.75;94942.91;4992806;28;20447;-49